Iona Mcallister — WDD4840 — position and weather

sailwx.info

Track history (hours):
 
Tides and Currents Weather Stations Pressure Air Temp Water Temp Dewpoint Dewpoint Depression Visibility Wind Speed Wind Dir Waves Ship Positions

Iona Mcallister

Owner: McAllister Towing & Transportation Co. Inc., Staten Island, NY. More information available from US FCC via Universal Licensing System and Coast Guard Vessel Documentation Center.

Last reported at 2016-Feb-08 05:33 UTC. Time now 2016-Feb-08 06:05 UTC.
Position N 41°49' W 071°24'.

Length 36 m.

Type: Towing. MMSI: 367149890.

Date/timePositionNaut miles runAvg speedWind from/ knotsBaromVisibWave heightAir tempDewpointWater temp
2016-Feb-08 05:33N 41°49' W 071°24'0 0.0
2016-Feb-08 04:33N 41°49' W 071°24'0 0.0
2016-Feb-08 03:33N 41°49' W 071°24'0 0.0
2016-Feb-08 02:28N 41°49' W 071°24'0 0.0
2016-Feb-08 01:33N 41°49' W 071°24'0 0.0
2016-Feb-08 00:33N 41°49' W 071°24'0 0.0
2016-Feb-07 23:33N 41°49' W 071°24'0 0.0
2016-Feb-07 22:33N 41°49' W 071°24'0 0.0
2016-Feb-07 21:26N 41°49' W 071°24'0 0.0
2016-Feb-07 19:33N 41°49' W 071°24'0 0.0
2016-Feb-07 18:33N 41°49' W 071°24'0 0.0
2016-Feb-07 17:33N 41°49' W 071°24'0 0.0
2016-Feb-07 16:34N 41°49' W 071°24'0 0.0
2016-Feb-07 15:24N 41°49' W 071°24'0 0.0
2016-Feb-07 14:33N 41°49' W 071°24'0 0.0
2016-Feb-07 13:33N 41°49' W 071°24'0 0.0
2016-Feb-07 12:33N 41°49' W 071°24'0 0.0
2016-Feb-07 11:33N 41°49' W 071°24'0 0.0
2016-Feb-07 10:33N 41°49' W 071°24'0 0.0
2016-Feb-07 09:33N 41°49' W 071°24'0 0.0
2016-Feb-07 08:33N 41°49' W 071°24'0 0.0
2016-Feb-07 07:33N 41°49' W 071°24'0 0.0
2016-Feb-07 06:33N 41°49' W 071°24'0 0.0
2016-Feb-07 05:33N 41°49' W 071°24'0 0.0
2016-Feb-07 04:33N 41°49' W 071°24'1 0.6
2016-Feb-07 03:20N 41°48' W 071°24'1 0.9
2016-Feb-07 02:33N 41°49' W 071°24'0 0.0
2016-Feb-07 01:31N 41°49' W 071°24'0 0.0
2016-Feb-07 00:27N 41°49' W 071°24'0 0.0
2016-Feb-06 23:33N 41°49' W 071°24'0 0.0
2016-Feb-06 22:33N 41°49' W 071°24'0 0.3
2016-Feb-06 21:20N 41°49' W 071°24'0 0.4
2016-Feb-06 20:33N 41°49' W 071°24'1 1.0
2016-Feb-06 19:33N 41°48' W 071°23'1 0.8
2016-Feb-06 18:33N 41°47' W 071°23'0 0.0
2016-Feb-06 16:33N 41°47' W 071°23'1 0.3
2016-Feb-06 14:24N 41°48' W 071°23'0 0.0
2016-Feb-06 13:31N 41°48' W 071°23'0 0.0
2016-Feb-06 12:31N 41°48' W 071°23'1 1.2
2016-Feb-06 11:33N 41°49' W 071°24'0 0.0
2016-Feb-06 10:33N 41°49' W 071°24'0 0.0
2016-Feb-06 09:32N 41°49' W 071°24'0 0.0
2016-Feb-06 08:33N 41°49' W 071°24'0 0.0
2016-Feb-06 07:33N 41°49' W 071°24'1 0.8
2016-Feb-06 06:33N 41°48' W 071°24'1 0.8
2016-Feb-06 05:33N 41°49' W 071°24'0 0.0
2016-Feb-06 04:33N 41°49' W 071°24'0 0.0
2016-Feb-06 03:33N 41°49' W 071°24'0 0.0
2016-Feb-06 02:33N 41°49' W 071°24'0 0.0
2016-Feb-06 01:32N 41°49' W 071°24'5 5.0
2016-Feb-06 00:33N 41°44' W 071°22'9 8.6
2016-Feb-05 23:33N 41°36' W 071°18'4 3.7
2016-Feb-05 22:27N 41°37' W 071°23'1 0.4
2016-Feb-05 20:27N 41°37' W 071°24'0 0.0
2016-Feb-05 19:31N 41°37' W 071°24'0 0.0
2016-Feb-05 18:24N 41°37' W 071°24'0 0.0
2016-Feb-05 17:33N 41°37' W 071°24'0 0.0
2016-Feb-05 16:33N 41°37' W 071°24'0 0.0
2016-Feb-05 15:33N 41°37' W 071°24'0 0.0
2016-Feb-05 14:33N 41°37' W 071°24'0 0.0
2016-Feb-05 13:33N 41°37' W 071°24'0 0.0
2016-Feb-05 12:33N 41°37' W 071°24'0 0.1
2016-Feb-05 11:33N 41°37' W 071°24'0 0.1
2016-Feb-05 10:33N 41°37' W 071°24'0 0.0
2016-Feb-05 09:33N 41°37' W 071°24'0 0.0
2016-Feb-05 08:34N 41°37' W 071°24'0 0.0
2016-Feb-05 07:33N 41°37' W 071°24'0 0.0
2016-Feb-05 06:33N 41°37' W 071°24'0 0.0
2016-Feb-05 05:33N 41°37' W 071°24'0 0.0
2016-Feb-05 04:33N 41°37' W 071°24'0 0.0
2016-Feb-05 03:33N 41°37' W 071°24'0 0.0
2016-Feb-05 02:33N 41°37' W 071°24'0 0.0
2016-Feb-05 01:33N 41°37' W 071°24'0 0.0
2016-Feb-05 00:33N 41°37' W 071°24'0 0.0
2016-Feb-04 23:33N 41°37' W 071°24'0 0.0
2016-Feb-04 22:33N 41°37' W 071°24'0 0.0
2016-Feb-04 12:07N 41°37' W 071°24'1 0.6
2016-Feb-04 11:06N 41°36' W 071°24'1 2.5
2016-Feb-04 10:33N 41°35' W 071°25'0 0.0
2016-Feb-04 09:33N 41°35' W 071°25'0 0.0
2016-Feb-04 08:33N 41°35' W 071°25'0 0.0
2016-Feb-04 07:33N 41°35' W 071°25'0 0.0
2016-Feb-04 06:34N 41°35' W 071°25'0 0.0
2016-Feb-04 05:33N 41°35' W 071°24'8 7.7
2016-Feb-04 04:33N 41°42' W 071°20'7 6.5
2016-Feb-04 03:33N 41°48' W 071°24'0 0.1
2016-Feb-04 02:32N 41°48' W 071°24'1 0.8
2016-Feb-04 01:33N 41°49' W 071°24'0 0.0
2016-Feb-04 00:33N 41°49' W 071°24'0 0.0
2016-Feb-03 23:33N 41°49' W 071°24'0 0.0
2016-Feb-03 22:33N 41°49' W 071°24'0 0.0
2016-Feb-03 21:33N 41°49' W 071°24'0 0.0
2016-Feb-03 20:33N 41°49' W 071°24'0 0.0
2016-Feb-03 19:33N 41°49' W 071°24'0 0.0
2016-Feb-03 18:33N 41°49' W 071°24'0 0.0
2016-Feb-03 17:33N 41°49' W 071°24'0 0.0
2016-Feb-03 16:33N 41°49' W 071°24'0 0.0
2016-Feb-03 15:33N 41°49' W 071°24'0 0.0
2016-Feb-03 14:34N 41°49' W 071°24'1 1.0
2016-Feb-03 13:33N 41°48' W 071°23'1 0.6
2016-Feb-03 12:33N 41°48' W 071°23'2 1.6
2016-Feb-03 11:33N 41°49' W 071°24'0 0.0
2016-Feb-03 10:33N 41°49' W 071°24'1 0.8
2016-Feb-03 09:33N 41°48' W 071°24'1 0.6
2016-Feb-03 08:33N 41°48' W 071°23'0 0.0
2016-Feb-03 07:33N 41°48' W 071°23'0 0.0
2016-Feb-03 06:33N 41°48' W 071°23'1 0.6
2016-Feb-03 05:33N 41°48' W 071°24'1 0.8
2016-Feb-03 04:33N 41°49' W 071°24'0 0.0
2016-Feb-03 03:33N 41°49' W 071°24'0 0.0
2016-Feb-03 02:33N 41°49' W 071°24'1 0.8
2016-Feb-03 01:33N 41°48' W 071°23'0 0.3
2016-Feb-03 00:33N 41°49' W 071°24'0 0.4
2016-Feb-02 23:33N 41°49' W 071°24'0 0.0
2016-Feb-02 22:33N 41°49' W 071°24'0 0.0
2016-Feb-02 21:30N 41°49' W 071°24'0 0.0
2016-Feb-02 20:31N 41°49' W 071°24'0 0.0
2016-Feb-02 19:29N 41°49' W 071°24'0 0.0
2016-Feb-02 18:33N 41°49' W 071°24'0 0.0
2016-Feb-02 17:33N 41°49' W 071°24'0 0.0
2016-Feb-02 16:33N 41°49' W 071°24'0 0.0
2016-Feb-02 15:33N 41°49' W 071°24'0 0.0
2016-Feb-02 14:32N 41°49' W 071°24'2 2.2
2016-Feb-02 13:30N 41°47' W 071°22'1 1.3
2016-Feb-02 12:33N 41°48' W 071°23'1 1.1
2016-Feb-02 11:33N 41°49' W 071°24'0 0.0
2016-Feb-02 10:33N 41°49' W 071°24'0 0.0
2016-Feb-02 09:33N 41°49' W 071°24'1 0.8
2016-Feb-02 08:33N 41°48' W 071°24'1 0.8
2016-Feb-02 07:34N 41°49' W 071°24'0 0.0
2016-Feb-02 06:33N 41°49' W 071°24'0 0.0
2016-Feb-02 05:33N 41°49' W 071°24'0 0.0
2016-Feb-02 04:07N 41°49' W 071°24'0 0.0
2016-Feb-02 03:14N 41°49' W 071°24'0 0.0
2016-Feb-02 02:30N 41°49' W 071°24'0 0.0
2016-Feb-02 01:21N 41°49' W 071°24'0 0.0
2016-Feb-02 00:33N 41°49' W 071°24'0 0.0
2016-Feb-01 23:32N 41°49' W 071°24'0 0.0
2016-Feb-01 21:22N 41°49' W 071°24'1 1.5
2016-Feb-01 20:30N 41°48' W 071°23'7 7.8
2016-Feb-01 19:33N 41°41' W 071°21'4 4.5
2016-Feb-01 18:33N 41°37' W 071°24'0 0.0
2016-Feb-01 17:33N 41°37' W 071°24'0 0.0
2016-Feb-01 15:33N 41°37' W 071°24'0 0.0
2016-Feb-01 14:33N 41°37' W 071°24'0 0.0
2016-Feb-01 13:25N 41°37' W 071°24'0 0.0
2016-Feb-01 12:33N 41°37' W 071°24'0 0.0
2016-Feb-01 11:32N 41°37' W 071°24'1 1.1
2016-Feb-01 10:33N 41°36' W 071°24'4 3.5
2016-Feb-01 09:33N 41°39' W 071°23'7 7.2
2016-Feb-01 08:33N 41°46' W 071°22'3 2.8
2016-Feb-01 07:33N 41°49' W 071°24'0 0.0
2016-Feb-01 06:33N 41°49' W 071°24'0 0.0
2016-Feb-01 05:33N 41°49' W 071°24'0 0.0
2016-Feb-01 04:33N 41°49' W 071°24'0 0.0
2016-Feb-01 03:31N 41°49' W 071°24'0 0.0
2016-Feb-01 02:33N 41°49' W 071°24'0 0.0
2016-Feb-01 01:33N 41°49' W 071°24'0 0.0
2016-Feb-01 00:33N 41°49' W 071°24'0 0.0
2016-Jan-31 23:33N 41°49' W 071°24'0 0.0
2016-Jan-31 22:33N 41°49' W 071°24'0 0.0
2016-Jan-31 21:16N 41°49' W 071°24'0 0.0
2016-Jan-31 19:16N 41°49' W 071°24'0 0.0
2016-Jan-31 17:05N 41°49' W 071°24'0 0.0
2016-Jan-31 16:33N 41°49' W 071°24'0 0.0
2016-Jan-31 15:33N 41°49' W 071°24'0 0.0
2016-Jan-31 14:33N 41°49' W 071°24'0 0.0
2016-Jan-31 13:33N 41°49' W 071°24'0 0.4
2016-Jan-31 12:32N 41°49' W 071°24'0 0.4
2016-Jan-31 11:33N 41°49' W 071°24'0 0.0
2016-Jan-31 10:33N 41°49' W 071°24'0 0.0
2016-Jan-31 09:33N 41°49' W 071°24'0 0.0
2016-Jan-31 08:33N 41°49' W 071°24'0 0.0
2016-Jan-31 07:33N 41°49' W 071°24'0 0.0
2016-Jan-31 06:33N 41°49' W 071°24'0 0.0
2016-Jan-31 05:33N 41°49' W 071°24'0 0.0
2016-Jan-31 04:33N 41°49' W 071°24'0 0.0
2016-Jan-31 03:33N 41°49' W 071°24'0 0.0
2016-Jan-31 02:33N 41°49' W 071°24'0 0.0
2016-Jan-31 01:33N 41°49' W 071°24'0 0.0
2016-Jan-31 00:33N 41°49' W 071°24'0 0.0
2016-Jan-30 23:33N 41°49' W 071°24'0 0.0
2016-Jan-30 22:33N 41°49' W 071°24'0 0.0
2016-Jan-30 21:33N 41°49' W 071°24'0 0.0
2016-Jan-30 20:33N 41°49' W 071°24'0 0.0
2016-Jan-30 19:33N 41°49' W 071°24'0 0.0
2016-Jan-30 18:33N 41°49' W 071°24'0 0.0
2016-Jan-30 17:33N 41°49' W 071°24'1 1.1
2016-Jan-30 16:29N 41°48' W 071°23'1 1.2
2016-Jan-30 15:33N 41°49' W 071°24'0 0.0
2016-Jan-30 14:28N 41°49' W 071°24'0 0.0
2016-Jan-30 13:33N 41°49' W 071°24'0 0.0
2016-Jan-30 12:31N 41°49' W 071°24'0 0.0
2016-Jan-30 11:33N 41°49' W 071°24'0 0.0
2016-Jan-30 10:33N 41°49' W 071°24'0 0.0
2016-Jan-30 09:33N 41°49' W 071°24'0 0.0
2016-Jan-30 08:33N 41°49' W 071°24'0 0.0
2016-Jan-30 07:33N 41°49' W 071°24'0 0.0
2016-Jan-30 06:33N 41°49' W 071°24'0 0.0
2016-Jan-30 05:33N 41°49' W 071°24'0 0.0
2016-Jan-30 04:33N 41°49' W 071°24'0 0.0
2016-Jan-30 03:31N 41°49' W 071°24'0 0.0
2016-Jan-30 02:33N 41°49' W 071°24'0 0.0
2016-Jan-30 01:33N 41°49' W 071°24'0 0.0
2016-Jan-30 00:32N 41°49' W 071°24'0 0.0
2016-Jan-29 23:21N 41°49' W 071°24'0 0.0
2016-Jan-29 22:33N 41°49' W 071°24'0 0.0
2016-Jan-29 21:32N 41°49' W 071°24'1 0.8
2016-Jan-29 20:32N 41°48' W 071°24'1 0.6
2016-Jan-29 19:29N 41°49' W 071°24'0 0.1
2016-Jan-29 18:30N 41°49' W 071°24'0 0.0
2016-Jan-29 17:28N 41°49' W 071°24'0 0.0
2016-Jan-29 16:17N 41°49' W 071°24'1 1.2
2016-Jan-29 15:33N 41°48' W 071°24'1 0.9
2016-Jan-29 14:33N 41°49' W 071°24'0 0.0
2016-Jan-29 13:33N 41°49' W 071°24'5 5.1
2016-Jan-29 12:33N 41°44' W 071°22'19 7.5
2016-Jan-29 10:04N 41°26' W 071°19'  
Track history (hours):
 
Tides and Currents Weather Stations Pressure Air Temp Water Temp Dewpoint Dewpoint Depression Visibility Wind Speed Wind Dir Waves Ship Positions

Iona Mcallister

Owner: McAllister Towing & Transportation Co. Inc., Staten Island, NY. More information available from US FCC via Universal Licensing System and Coast Guard Vessel Documentation Center.

Last reported at 2016-Feb-08 05:33 UTC. Time now 2016-Feb-08 06:05 UTC.
Position N 41°49' W 071°24'.

Length 36 m.

Type: Towing. MMSI: 367149890.

Date/timePositionNaut miles runAvg speedWind from/ knotsBaromVisibWave heightAir tempDewpointWater temp
2016-Feb-08 05:33N 41°49' W 071°24'0 0.0
2016-Feb-08 04:33N 41°49' W 071°24'0 0.0
2016-Feb-08 03:33N 41°49' W 071°24'0 0.0
2016-Feb-08 02:28N 41°49' W 071°24'0 0.0
2016-Feb-08 01:33N 41°49' W 071°24'0 0.0
2016-Feb-08 00:33N 41°49' W 071°24'0 0.0
2016-Feb-07 23:33N 41°49' W 071°24'0 0.0
2016-Feb-07 22:33N 41°49' W 071°24'0 0.0
2016-Feb-07 21:26N 41°49' W 071°24'0 0.0
2016-Feb-07 19:33N 41°49' W 071°24'0 0.0
2016-Feb-07 18:33N 41°49' W 071°24'0 0.0
2016-Feb-07 17:33N 41°49' W 071°24'0 0.0
2016-Feb-07 16:34N 41°49' W 071°24'0 0.0
2016-Feb-07 15:24N 41°49' W 071°24'0 0.0
2016-Feb-07 14:33N 41°49' W 071°24'0 0.0
2016-Feb-07 13:33N 41°49' W 071°24'0 0.0
2016-Feb-07 12:33N 41°49' W 071°24'0 0.0
2016-Feb-07 11:33N 41°49' W 071°24'0 0.0
2016-Feb-07 10:33N 41°49' W 071°24'0 0.0
2016-Feb-07 09:33N 41°49' W 071°24'0 0.0
2016-Feb-07 08:33N 41°49' W 071°24'0 0.0
2016-Feb-07 07:33N 41°49' W 071°24'0 0.0
2016-Feb-07 06:33N 41°49' W 071°24'0 0.0
2016-Feb-07 05:33N 41°49' W 071°24'0 0.0
2016-Feb-07 04:33N 41°49' W 071°24'1 0.6
2016-Feb-07 03:20N 41°48' W 071°24'1 0.9
2016-Feb-07 02:33N 41°49' W 071°24'0 0.0
2016-Feb-07 01:31N 41°49' W 071°24'0 0.0
2016-Feb-07 00:27N 41°49' W 071°24'0 0.0
2016-Feb-06 23:33N 41°49' W 071°24'0 0.0
2016-Feb-06 22:33N 41°49' W 071°24'0 0.3
2016-Feb-06 21:20N 41°49' W 071°24'0 0.4
2016-Feb-06 20:33N 41°49' W 071°24'1 1.0
2016-Feb-06 19:33N 41°48' W 071°23'1 0.8
2016-Feb-06 18:33N 41°47' W 071°23'0 0.0
2016-Feb-06 16:33N 41°47' W 071°23'1 0.3
2016-Feb-06 14:24N 41°48' W 071°23'0 0.0
2016-Feb-06 13:31N 41°48' W 071°23'0 0.0
2016-Feb-06 12:31N 41°48' W 071°23'1 1.2
2016-Feb-06 11:33N 41°49' W 071°24'0 0.0
2016-Feb-06 10:33N 41°49' W 071°24'0 0.0
2016-Feb-06 09:32N 41°49' W 071°24'0 0.0
2016-Feb-06 08:33N 41°49' W 071°24'0 0.0
2016-Feb-06 07:33N 41°49' W 071°24'1 0.8
2016-Feb-06 06:33N 41°48' W 071°24'1 0.8
2016-Feb-06 05:33N 41°49' W 071°24'0 0.0
2016-Feb-06 04:33N 41°49' W 071°24'0 0.0
2016-Feb-06 03:33N 41°49' W 071°24'0 0.0
2016-Feb-06 02:33N 41°49' W 071°24'0 0.0
2016-Feb-06 01:32N 41°49' W 071°24'5 5.0
2016-Feb-06 00:33N 41°44' W 071°22'9 8.6
2016-Feb-05 23:33N 41°36' W 071°18'4 3.7
2016-Feb-05 22:27N 41°37' W 071°23'1 0.4
2016-Feb-05 20:27N 41°37' W 071°24'0 0.0
2016-Feb-05 19:31N 41°37' W 071°24'0 0.0
2016-Feb-05 18:24N 41°37' W 071°24'0 0.0
2016-Feb-05 17:33N 41°37' W 071°24'0 0.0
2016-Feb-05 16:33N 41°37' W 071°24'0 0.0
2016-Feb-05 15:33N 41°37' W 071°24'0 0.0
2016-Feb-05 14:33N 41°37' W 071°24'0 0.0
2016-Feb-05 13:33N 41°37' W 071°24'0 0.0
2016-Feb-05 12:33N 41°37' W 071°24'0 0.1
2016-Feb-05 11:33N 41°37' W 071°24'0 0.1
2016-Feb-05 10:33N 41°37' W 071°24'0 0.0
2016-Feb-05 09:33N 41°37' W 071°24'0 0.0
2016-Feb-05 08:34N 41°37' W 071°24'0 0.0
2016-Feb-05 07:33N 41°37' W 071°24'0 0.0
2016-Feb-05 06:33N 41°37' W 071°24'0 0.0
2016-Feb-05 05:33N 41°37' W 071°24'0 0.0
2016-Feb-05 04:33N 41°37' W 071°24'0 0.0
2016-Feb-05 03:33N 41°37' W 071°24'0 0.0
2016-Feb-05 02:33N 41°37' W 071°24'0 0.0
2016-Feb-05 01:33N 41°37' W 071°24'0 0.0
2016-Feb-05 00:33N 41°37' W 071°24'0 0.0
2016-Feb-04 23:33N 41°37' W 071°24'0 0.0
2016-Feb-04 22:33N 41°37' W 071°24'0 0.0
2016-Feb-04 12:07N 41°37' W 071°24'1 0.6
2016-Feb-04 11:06N 41°36' W 071°24'1 2.5
2016-Feb-04 10:33N 41°35' W 071°25'0 0.0
2016-Feb-04 09:33N 41°35' W 071°25'0 0.0
2016-Feb-04 08:33N 41°35' W 071°25'0 0.0
2016-Feb-04 07:33N 41°35' W 071°25'0 0.0
2016-Feb-04 06:34N 41°35' W 071°25'0 0.0
2016-Feb-04 05:33N 41°35' W 071°24'8 7.7
2016-Feb-04 04:33N 41°42' W 071°20'7 6.5
2016-Feb-04 03:33N 41°48' W 071°24'0 0.1
2016-Feb-04 02:32N 41°48' W 071°24'1 0.8
2016-Feb-04 01:33N 41°49' W 071°24'0 0.0
2016-Feb-04 00:33N 41°49' W 071°24'0 0.0
2016-Feb-03 23:33N 41°49' W 071°24'0 0.0
2016-Feb-03 22:33N 41°49' W 071°24'0 0.0
2016-Feb-03 21:33N 41°49' W 071°24'0 0.0
2016-Feb-03 20:33N 41°49' W 071°24'0 0.0
2016-Feb-03 19:33N 41°49' W 071°24'0 0.0
2016-Feb-03 18:33N 41°49' W 071°24'0 0.0
2016-Feb-03 17:33N 41°49' W 071°24'0 0.0
2016-Feb-03 16:33N 41°49' W 071°24'0 0.0
2016-Feb-03 15:33N 41°49' W 071°24'0 0.0
2016-Feb-03 14:34N 41°49' W 071°24'1 1.0
2016-Feb-03 13:33N 41°48' W 071°23'1 0.6
2016-Feb-03 12:33N 41°48' W 071°23'2 1.6
2016-Feb-03 11:33N 41°49' W 071°24'0 0.0
2016-Feb-03 10:33N 41°49' W 071°24'1 0.8
2016-Feb-03 09:33N 41°48' W 071°24'1 0.6
2016-Feb-03 08:33N 41°48' W 071°23'0 0.0
2016-Feb-03 07:33N 41°48' W 071°23'0 0.0
2016-Feb-03 06:33N 41°48' W 071°23'1 0.6
2016-Feb-03 05:33N 41°48' W 071°24'1 0.8
2016-Feb-03 04:33N 41°49' W 071°24'0 0.0
2016-Feb-03 03:33N 41°49' W 071°24'0 0.0
2016-Feb-03 02:33N 41°49' W 071°24'1 0.8
2016-Feb-03 01:33N 41°48' W 071°23'0 0.3
2016-Feb-03 00:33N 41°49' W 071°24'0 0.4
2016-Feb-02 23:33N 41°49' W 071°24'0 0.0
2016-Feb-02 22:33N 41°49' W 071°24'0 0.0
2016-Feb-02 21:30N 41°49' W 071°24'0 0.0
2016-Feb-02 20:31N 41°49' W 071°24'0 0.0
2016-Feb-02 19:29N 41°49' W 071°24'0 0.0
2016-Feb-02 18:33N 41°49' W 071°24'0 0.0
2016-Feb-02 17:33N 41°49' W 071°24'0 0.0
2016-Feb-02 16:33N 41°49' W 071°24'0 0.0
2016-Feb-02 15:33N 41°49' W 071°24'0 0.0
2016-Feb-02 14:32N 41°49' W 071°24'2 2.2
2016-Feb-02 13:30N 41°47' W 071°22'1 1.3
2016-Feb-02 12:33N 41°48' W 071°23'1 1.1
2016-Feb-02 11:33N 41°49' W 071°24'0 0.0
2016-Feb-02 10:33N 41°49' W 071°24'0 0.0
2016-Feb-02 09:33N 41°49' W 071°24'1 0.8
2016-Feb-02 08:33N 41°48' W 071°24'1 0.8
2016-Feb-02 07:34N 41°49' W 071°24'0 0.0
2016-Feb-02 06:33N 41°49' W 071°24'0 0.0
2016-Feb-02 05:33N 41°49' W 071°24'0 0.0
2016-Feb-02 04:07N 41°49' W 071°24'0 0.0
2016-Feb-02 03:14N 41°49' W 071°24'0 0.0
2016-Feb-02 02:30N 41°49' W 071°24'0 0.0
2016-Feb-02 01:21N 41°49' W 071°24'0 0.0
2016-Feb-02 00:33N 41°49' W 071°24'0 0.0
2016-Feb-01 23:32N 41°49' W 071°24'0 0.0
2016-Feb-01 21:22N 41°49' W 071°24'1 1.5
2016-Feb-01 20:30N 41°48' W 071°23'7 7.8
2016-Feb-01 19:33N 41°41' W 071°21'4 4.5
2016-Feb-01 18:33N 41°37' W 071°24'0 0.0
2016-Feb-01 17:33N 41°37' W 071°24'0 0.0
2016-Feb-01 15:33N 41°37' W 071°24'0 0.0
2016-Feb-01 14:33N 41°37' W 071°24'0 0.0
2016-Feb-01 13:25N 41°37' W 071°24'0 0.0
2016-Feb-01 12:33N 41°37' W 071°24'0 0.0
2016-Feb-01 11:32N 41°37' W 071°24'1 1.1
2016-Feb-01 10:33N 41°36' W 071°24'4 3.5
2016-Feb-01 09:33N 41°39' W 071°23'7 7.2
2016-Feb-01 08:33N 41°46' W 071°22'3 2.8
2016-Feb-01 07:33N 41°49' W 071°24'0 0.0
2016-Feb-01 06:33N 41°49' W 071°24'0 0.0
2016-Feb-01 05:33N 41°49' W 071°24'0 0.0
2016-Feb-01 04:33N 41°49' W 071°24'0 0.0
2016-Feb-01 03:31N 41°49' W 071°24'0 0.0
2016-Feb-01 02:33N 41°49' W 071°24'0 0.0
2016-Feb-01 01:33N 41°49' W 071°24'0 0.0
2016-Feb-01 00:33N 41°49' W 071°24'0 0.0
2016-Jan-31 23:33N 41°49' W 071°24'0 0.0
2016-Jan-31 22:33N 41°49' W 071°24'0 0.0
2016-Jan-31 21:16N 41°49' W 071°24'0 0.0
2016-Jan-31 19:16N 41°49' W 071°24'0 0.0
2016-Jan-31 17:05N 41°49' W 071°24'0 0.0
2016-Jan-31 16:33N 41°49' W 071°24'0 0.0
2016-Jan-31 15:33N 41°49' W 071°24'0 0.0
2016-Jan-31 14:33N 41°49' W 071°24'0 0.0
2016-Jan-31 13:33N 41°49' W 071°24'0 0.4
2016-Jan-31 12:32N 41°49' W 071°24'0 0.4
2016-Jan-31 11:33N 41°49' W 071°24'0 0.0
2016-Jan-31 10:33N 41°49' W 071°24'0 0.0
2016-Jan-31 09:33N 41°49' W 071°24'0 0.0
2016-Jan-31 08:33N 41°49' W 071°24'0 0.0
2016-Jan-31 07:33N 41°49' W 071°24'0 0.0
2016-Jan-31 06:33N 41°49' W 071°24'0 0.0
2016-Jan-31 05:33N 41°49' W 071°24'0 0.0
2016-Jan-31 04:33N 41°49' W 071°24'0 0.0
2016-Jan-31 03:33N 41°49' W 071°24'0 0.0
2016-Jan-31 02:33N 41°49' W 071°24'0 0.0
2016-Jan-31 01:33N 41°49' W 071°24'0 0.0
2016-Jan-31 00:33N 41°49' W 071°24'0 0.0
2016-Jan-30 23:33N 41°49' W 071°24'0 0.0
2016-Jan-30 22:33N 41°49' W 071°24'0 0.0
2016-Jan-30 21:33N 41°49' W 071°24'0 0.0
2016-Jan-30 20:33N 41°49' W 071°24'0 0.0
2016-Jan-30 19:33N 41°49' W 071°24'0 0.0
2016-Jan-30 18:33N 41°49' W 071°24'0 0.0
2016-Jan-30 17:33N 41°49' W 071°24'1 1.1
2016-Jan-30 16:29N 41°48' W 071°23'1 1.2
2016-Jan-30 15:33N 41°49' W 071°24'0 0.0
2016-Jan-30 14:28N 41°49' W 071°24'0 0.0
2016-Jan-30 13:33N 41°49' W 071°24'0 0.0
2016-Jan-30 12:31N 41°49' W 071°24'0 0.0
2016-Jan-30 11:33N 41°49' W 071°24'0 0.0
2016-Jan-30 10:33N 41°49' W 071°24'0 0.0
2016-Jan-30 09:33N 41°49' W 071°24'0 0.0
2016-Jan-30 08:33N 41°49' W 071°24'0 0.0
2016-Jan-30 07:33N 41°49' W 071°24'0 0.0
2016-Jan-30 06:33N 41°49' W 071°24'0 0.0
2016-Jan-30 05:33N 41°49' W 071°24'0 0.0
2016-Jan-30 04:33N 41°49' W 071°24'0 0.0
2016-Jan-30 03:31N 41°49' W 071°24'0 0.0
2016-Jan-30 02:33N 41°49' W 071°24'0 0.0
2016-Jan-30 01:33N 41°49' W 071°24'0 0.0
2016-Jan-30 00:32N 41°49' W 071°24'0 0.0
2016-Jan-29 23:21N 41°49' W 071°24'0 0.0
2016-Jan-29 22:33N 41°49' W 071°24'0 0.0
2016-Jan-29 21:32N 41°49' W 071°24'1 0.8
2016-Jan-29 20:32N 41°48' W 071°24'1 0.6
2016-Jan-29 19:29N 41°49' W 071°24'0 0.1
2016-Jan-29 18:30N 41°49' W 071°24'0 0.0
2016-Jan-29 17:28N 41°49' W 071°24'0 0.0
2016-Jan-29 16:17N 41°49' W 071°24'1 1.2
2016-Jan-29 15:33N 41°48' W 071°24'1 0.9
2016-Jan-29 14:33N 41°49' W 071°24'0 0.0
2016-Jan-29 13:33N 41°49' W 071°24'5 5.1
2016-Jan-29 12:33N 41°44' W 071°22'19 7.5
2016-Jan-29 10:04N 41°26' W 071°19'  

Dump ship's entire track history